Air Navigation Services of Czech Republic
Airport: LKKV Updated:  03.10.2022 11:34:32  UTC
 METAR LKKV 03.10. 11:30 RRA
METAR LKKV 031130Z 28010KT 240V300 9999 SCT018 BKN045 12/06 Q1024=
 TAF LKKV 03.10. 11:00 ...
TAF LKKV 031100Z 0312/0418 28012KT 9999 BKN025      TEMPO 0312/0318 31012G22KT      TEMPO 0312/0403 7000 SHRA BKN007      BECMG 0318/0320 27004KT      BECMG 0404/0406 CAVOK=